sensor_id;sensor_type;location;lat;lon;timestamp;pressure;altitude;pressure_sealevel;temperature;humidity
60212;BME280;46079;48.686;15.598;2023-03-21T00:01:31;100005.03;;;20.53;38.20
60212;BME280;46079;48.686;15.598;2023-03-21T00:03:57;100004.09;;;20.54;38.40
60212;BME280;46079;48.686;15.598;2023-03-21T00:06:22;100000.63;;;20.53;38.23
60212;BME280;46079;48.686;15.598;2023-03-21T00:08:48;100011.97;;;20.54;38.44
60212;BME280;46079;48.686;15.598;2023-03-21T00:11:13;99999.78;;;20.53;38.18
60212;BME280;46079;48.686;15.598;2023-03-21T00:13:39;99998.00;;;20.53;38.17
60212;BME280;46079;48.686;15.598;2023-03-21T00:16:08;99999.78;;;20.53;38.26
60212;BME280;46079;48.686;15.598;2023-03-21T00:18:35;99997.16;;;20.53;38.33
60212;BME280;46079;48.686;15.598;2023-03-21T00:21:03;99999.78;;;20.53;38.31
60212;BME280;46079;48.686;15.598;2023-03-21T00:23:30;99999.78;;;20.53;38.39
60212;BME280;46079;48.686;15.598;2023-03-21T00:25:56;99989.28;;;20.53;38.27
60212;BME280;46079;48.686;15.598;2023-03-21T00:28:23;99998.13;;;20.52;38.31
60212;BME280;46079;48.686;15.598;2023-03-21T00:30:49;99986.78;;;20.51;38.24
60212;BME280;46079;48.686;15.598;2023-03-21T00:33:15;99985.94;;;20.51;38.36
60212;BME280;46079;48.686;15.598;2023-03-21T00:35:45;99989.41;;;20.51;37.84
60212;BME280;46079;48.686;15.598;2023-03-21T00:38:13;99983.19;;;20.52;38.28
60212;BME280;46079;48.686;15.598;2023-03-21T00:40:38;99986.78;;;20.51;38.15
60212;BME280;46079;48.686;15.598;2023-03-21T00:43:04;99979.03;;;20.50;38.38
60212;BME280;46079;48.686;15.598;2023-03-21T00:45:30;99980.69;;;20.51;38.32
60212;BME280;46079;48.686;15.598;2023-03-21T00:47:56;99980.03;;;20.49;38.35
60212;BME280;46079;48.686;15.598;2023-03-21T00:50:22;99975.44;;;20.51;38.26
60212;BME280;46079;48.686;15.598;2023-03-21T00:52:48;99973.78;;;20.50;38.18
60212;BME280;46079;48.686;15.598;2023-03-21T00:55:15;99976.25;;;20.51;38.24
60212;BME280;46079;48.686;15.598;2023-03-21T00:57:41;99976.25;;;20.51;38.17
60212;BME280;46079;48.686;15.598;2023-03-21T01:00:10;99976.41;;;20.50;38.28
60212;BME280;46079;48.686;15.598;2023-03-21T01:02:37;99975.44;;;20.51;38.26
60212;BME280;46079;48.686;15.598;2023-03-21T01:05:05;99965.91;;;20.50;38.15
60212;BME280;46079;48.686;15.598;2023-03-21T01:07:31;99967.69;;;20.49;38.28
60212;BME280;46079;48.686;15.598;2023-03-21T01:09:56;99971.28;;;20.48;38.16
60212;BME280;46079;48.686;15.598;2023-03-21T01:12:22;99965.91;;;20.50;38.27
60212;BME280;46079;48.686;15.598;2023-03-21T01:14:47;99964.25;;;20.49;38.13
60212;BME280;46079;48.686;15.598;2023-03-21T01:17:12;99970.34;;;20.49;38.26
60212;BME280;46079;48.686;15.598;2023-03-21T01:19:38;99966.88;;;20.49;38.21
60212;BME280;46079;48.686;15.598;2023-03-21T01:22:03;99963.41;;;20.48;38.20
60212;BME280;46079;48.686;15.598;2023-03-21T01:24:29;99966.03;;;20.48;38.00
60212;BME280;46079;48.686;15.598;2023-03-21T01:26:54;99954.69;;;20.48;38.26
60212;BME280;46079;48.686;15.598;2023-03-21T01:29:20;99966.88;;;20.49;38.23
60212;BME280;46079;48.686;15.598;2023-03-21T01:31:45;99962.56;;;20.48;38.24
60212;BME280;46079;48.686;15.598;2023-03-21T01:34:11;99970.44;;;20.48;38.36
60212;BME280;46079;48.686;15.598;2023-03-21T01:36:36;99953.88;;;20.47;38.15
60212;BME280;46079;48.686;15.598;2023-03-21T01:39:02;99954.84;;;20.46;38.24
60212;BME280;46079;48.686;15.598;2023-03-21T01:41:35;99963.56;;;20.47;38.27
60212;BME280;46079;48.686;15.598;2023-03-21T01:44:01;99959.13;;;20.47;38.18
60212;BME280;46079;48.686;15.598;2023-03-21T01:46:42;99959.94;;;20.48;38.20
60212;BME280;46079;48.686;15.598;2023-03-21T01:49:33;99961.88;;;20.46;38.17
60212;BME280;46079;48.686;15.598;2023-03-21T01:52:04;99963.56;;;20.47;38.35
60212;BME280;46079;48.686;15.598;2023-03-21T01:54:34;99946.97;;;20.46;38.24
60212;BME280;46079;48.686;15.598;2023-03-21T01:57:06;99951.38;;;20.46;38.30
60212;BME280;46079;48.686;15.598;2023-03-21T02:02:01;99948.59;;;20.47;38.26
60212;BME280;46079;48.686;15.598;2023-03-21T02:04:33;99951.38;;;20.46;38.27
60212;BME280;46079;48.686;15.598;2023-03-21T02:07:04;99956.50;;;20.47;38.34
60212;BME280;46079;48.686;15.598;2023-03-21T02:09:33;99946.09;;;20.46;38.21
60212;BME280;46079;48.686;15.598;2023-03-21T02:12:01;99948.72;;;20.46;38.25
60212;BME280;46079;48.686;15.598;2023-03-21T02:14:29;99945.28;;;20.45;38.28
60212;BME280;46079;48.686;15.598;2023-03-21T02:17:17;99944.47;;;20.44;38.07
60212;BME280;46079;48.686;15.598;2023-03-21T02:24:03;99944.47;;;20.44;38.17
60212;BME280;46079;48.686;15.598;2023-03-21T02:26:37;99942.66;;;20.45;38.24
60212;BME280;46079;48.686;15.598;2023-03-21T02:37:31;99941.00;;;20.44;38.29
60212;BME280;46079;48.686;15.598;2023-03-21T02:40:19;99941.00;;;20.44;38.29
60212;BME280;46079;48.686;15.598;2023-03-21T02:42:58;99938.38;;;20.44;38.25
60212;BME280;46079;48.686;15.598;2023-03-21T02:45:49;99938.38;;;20.44;38.08
60212;BME280;46079;48.686;15.598;2023-03-21T02:48:26;99927.88;;;20.44;37.98
60212;BME280;46079;48.686;15.598;2023-03-21T02:50:57;99926.19;;;20.43;38.04
60212;BME280;46079;48.686;15.598;2023-03-21T02:53:29;99927.03;;;20.43;38.31
60212;BME280;46079;48.686;15.598;2023-03-21T02:55:58;99923.72;;;20.41;38.26
60212;BME280;46079;48.686;15.598;2023-03-21T02:58:24;99921.78;;;20.43;38.31
60212;BME280;46079;48.686;15.598;2023-03-21T03:00:52;99928.97;;;20.41;38.29
60212;BME280;46079;48.686;15.598;2023-03-21T03:03:19;99930.63;;;20.42;38.08
60212;BME280;46079;48.686;15.598;2023-03-21T03:05:52;99920.94;;;20.43;38.29
60212;BME280;46079;48.686;15.598;2023-03-21T03:11:27;99927.16;;;20.42;38.16
60212;BME280;46079;48.686;15.598;2023-03-21T03:16:48;99925.38;;;20.42;38.21
60212;BME280;46079;48.686;15.598;2023-03-21T03:19:26;99928.97;;;20.41;38.42
60212;BME280;46079;48.686;15.598;2023-03-21T03:22:09;99924.69;;;20.40;38.34
60212;BME280;46079;48.686;15.598;2023-03-21T03:24:43;99934.22;;;20.41;38.18
60212;BME280;46079;48.686;15.598;2023-03-21T03:27:25;99920.25;;;20.41;38.11
60212;BME280;46079;48.686;15.598;2023-03-21T03:29:56;99928.97;;;20.41;38.19
60212;BME280;46079;48.686;15.598;2023-03-21T03:32:32;99924.69;;;20.40;38.17
60212;BME280;46079;48.686;15.598;2023-03-21T03:35:00;99924.53;;;20.42;38.22
60212;BME280;46079;48.686;15.598;2023-03-21T03:37:28;99926.34;;;20.41;38.19
60212;BME280;46079;48.686;15.598;2023-03-21T03:40:03;99922.06;;;20.40;38.16
60212;BME280;46079;48.686;15.598;2023-03-21T03:42:35;99921.22;;;20.40;38.20
60212;BME280;46079;48.686;15.598;2023-03-21T03:45:04;99921.22;;;20.40;38.08
60212;BME280;46079;48.686;15.598;2023-03-21T03:47:39;99922.91;;;20.41;38.11
60212;BME280;46079;48.686;15.598;2023-03-21T03:52:42;99915.13;;;20.39;38.14
60212;BME280;46079;48.686;15.598;2023-03-21T03:55:13;99920.38;;;20.39;38.13
60212;BME280;46079;48.686;15.598;2023-03-21T03:57:40;99913.50;;;20.38;38.32
60212;BME280;46079;48.686;15.598;2023-03-21T04:00:10;99920.38;;;20.39;38.19
60212;BME280;46079;48.686;15.598;2023-03-21T04:02:40;99921.38;;;20.38;38.13
60212;BME280;46079;48.686;15.598;2023-03-21T04:05:06;99924.81;;;20.39;38.18
60212;BME280;46079;48.686;15.598;2023-03-21T04:07:32;99919.56;;;20.39;38.07
60212;BME280;46079;48.686;15.598;2023-03-21T04:09:57;99915.13;;;20.39;38.25
60212;BME280;46079;48.686;15.598;2023-03-21T04:12:23;99914.44;;;20.37;38.21
60212;BME280;46079;48.686;15.598;2023-03-21T04:14:49;99924.81;;;20.39;38.13
60212;BME280;46079;48.686;15.598;2023-03-21T04:17:15;99924.00;;;20.38;38.08
60212;BME280;46079;48.686;15.598;2023-03-21T04:19:40;99918.75;;;20.38;38.29
60212;BME280;46079;48.686;15.598;2023-03-21T04:22:06;99917.91;;;20.38;38.22
60212;BME280;46079;48.686;15.598;2023-03-21T04:24:32;99923.19;;;20.38;38.08
60212;BME280;46079;48.686;15.598;2023-03-21T04:26:57;99922.31;;;20.37;38.17
60212;BME280;46079;48.686;15.598;2023-03-21T04:29:23;99924.00;;;20.38;38.02
60212;BME280;46079;48.686;15.598;2023-03-21T04:31:48;99923.19;;;20.38;38.19
60212;BME280;46079;48.686;15.598;2023-03-21T04:34:14;99921.38;;;20.38;38.13
60212;BME280;46079;48.686;15.598;2023-03-21T04:36:39;99924.00;;;20.38;38.06
60212;BME280;46079;48.686;15.598;2023-03-21T04:39:11;99930.19;;;20.37;38.22
60212;BME280;46079;48.686;15.598;2023-03-21T04:41:41;99923.28;;;20.36;38.16
60212;BME280;46079;48.686;15.598;2023-03-21T04:44:08;99932.00;;;20.37;38.17
60212;BME280;46079;48.686;15.598;2023-03-21T04:46:34;99932.81;;;20.37;38.20
60212;BME280;46079;48.686;15.598;2023-03-21T04:49:00;99942.50;;;20.37;38.19
60212;BME280;46079;48.686;15.598;2023-03-21T04:51:26;99938.06;;;20.37;38.19
60212;BME280;46079;48.686;15.598;2023-03-21T04:53:51;99941.69;;;20.36;38.09
60212;BME280;46079;48.686;15.598;2023-03-21T04:56:23;99941.69;;;20.36;38.12
60212;BME280;46079;48.686;15.598;2023-03-21T04:58:55;99939.06;;;20.36;38.16
60212;BME280;46079;48.686;15.598;2023-03-21T05:01:21;99937.25;;;20.37;38.14
60212;BME280;46079;48.686;15.598;2023-03-21T05:03:47;99931.19;;;20.36;38.12
60212;BME280;46079;48.686;15.598;2023-03-21T05:06:12;99932.97;;;20.36;38.10
60212;BME280;46079;48.686;15.598;2023-03-21T05:08:38;99940.03;;;20.35;38.07
60212;BME280;46079;48.686;15.598;2023-03-21T05:11:03;99943.50;;;20.36;38.03
60212;BME280;46079;48.686;15.598;2023-03-21T05:13:29;99948.75;;;20.36;38.10
60212;BME280;46079;48.686;15.598;2023-03-21T05:15:54;99943.59;;;20.34;38.17
60212;BME280;46079;48.686;15.598;2023-03-21T05:18:20;99947.91;;;20.35;38.08
60212;BME280;46079;48.686;15.598;2023-03-21T05:20:51;99952.31;;;20.35;38.32
60212;BME280;46079;48.686;15.598;2023-03-21T05:23:22;99948.88;;;20.34;38.29
60212;BME280;46079;48.686;15.598;2023-03-21T05:25:49;99954.13;;;20.34;38.29
60212;BME280;46079;48.686;15.598;2023-03-21T05:28:15;99954.13;;;20.34;38.08
60212;BME280;46079;48.686;15.598;2023-03-21T05:30:45;99966.31;;;20.35;38.23
60212;BME280;46079;48.686;15.598;2023-03-21T05:33:11;99958.44;;;20.35;38.33
60212;BME280;46079;48.686;15.598;2023-03-21T05:35:36;99967.25;;;20.34;38.26
60212;BME280;46079;48.686;15.598;2023-03-21T05:38:02;99968.94;;;20.35;38.10
60212;BME280;46079;48.686;15.598;2023-03-21T05:40:28;99970.72;;;20.35;38.03
60212;BME280;46079;48.686;15.598;2023-03-21T05:42:53;99969.06;;;20.34;38.07
60212;BME280;46079;48.686;15.598;2023-03-21T05:45:18;99965.44;;;20.35;38.19
60212;BME280;46079;48.686;15.598;2023-03-21T05:47:44;99964.63;;;20.34;38.21
60212;BME280;46079;48.686;15.598;2023-03-21T05:50:11;99966.44;;;20.34;38.06
60212;BME280;46079;48.686;15.598;2023-03-21T05:52:38;99963.81;;;20.34;38.08
60212;BME280;46079;48.686;15.598;2023-03-21T05:55:03;99957.72;;;20.33;38.10
60212;BME280;46079;48.686;15.598;2023-03-21T05:57:29;99967.25;;;20.34;38.26
60212;BME280;46079;48.686;15.598;2023-03-21T05:59:59;99964.78;;;20.33;38.11
60212;BME280;46079;48.686;15.598;2023-03-21T06:02:25;99962.00;;;20.34;38.07
60212;BME280;46079;48.686;15.598;2023-03-21T06:04:50;99966.59;;;20.32;38.04
60212;BME280;46079;48.686;15.598;2023-03-21T06:07:16;99963.81;;;20.34;38.22
60212;BME280;46079;48.686;15.598;2023-03-21T06:09:41;99960.34;;;20.33;38.10
60212;BME280;46079;48.686;15.598;2023-03-21T06:12:06;99966.59;;;20.32;37.97
60212;BME280;46079;48.686;15.598;2023-03-21T06:14:32;99968.22;;;20.33;38.24
60212;BME280;46079;48.686;15.598;2023-03-21T06:16:57;99972.66;;;20.33;38.23
60212;BME280;46079;48.686;15.598;2023-03-21T06:19:23;99971.84;;;20.32;38.18
60212;BME280;46079;48.686;15.598;2023-03-21T06:21:48;99969.22;;;20.32;38.13
60212;BME280;46079;48.686;15.598;2023-03-21T06:24:14;99970.97;;;20.32;37.95
60212;BME280;46079;48.686;15.598;2023-03-21T06:26:39;99969.22;;;20.32;37.95
60212;BME280;46079;48.686;15.598;2023-03-21T06:29:07;99976.22;;;20.32;38.35
60212;BME280;46079;48.686;15.598;2023-03-21T06:31:32;99983.28;;;20.31;37.94
60212;BME280;46079;48.686;15.598;2023-03-21T06:33:58;99980.66;;;20.31;38.18
60212;BME280;46079;48.686;15.598;2023-03-21T06:36:23;99974.59;;;20.31;38.04
60212;BME280;46079;48.686;15.598;2023-03-21T06:38:48;99984.13;;;20.32;38.24
60212;BME280;46079;48.686;15.598;2023-03-21T06:41:14;99992.00;;;20.32;38.11
60212;BME280;46079;48.686;15.598;2023-03-21T06:43:41;99992.00;;;20.32;38.08
60212;BME280;46079;48.686;15.598;2023-03-21T06:46:07;99993.94;;;20.30;38.14
60212;BME280;46079;48.686;15.598;2023-03-21T06:48:32;99997.25;;;20.32;38.21
60212;BME280;46079;48.686;15.598;2023-03-21T06:50:58;99999.06;;;20.31;38.25
60212;BME280;46079;48.686;15.598;2023-03-21T06:53:24;99994.78;;;20.30;38.23
60212;BME280;46079;48.686;15.598;2023-03-21T06:55:55;99991.16;;;20.31;38.16
60212;BME280;46079;48.686;15.598;2023-03-21T06:58:22;99991.16;;;20.31;38.16
60212;BME280;46079;48.686;15.598;2023-03-21T07:00:48;99992.00;;;20.32;38.07
60212;BME280;46079;48.686;15.598;2023-03-21T07:03:15;100000.03;;;20.30;38.14
60212;BME280;46079;48.686;15.598;2023-03-21T07:05:41;99990.34;;;20.31;38.22
60212;BME280;46079;48.686;15.598;2023-03-21T07:08:07;99989.53;;;20.30;38.10
60212;BME280;46079;48.686;15.598;2023-03-21T07:10:40;99988.53;;;20.31;38.28
60212;BME280;46079;48.686;15.598;2023-03-21T07:13:06;99986.91;;;20.30;38.22
60212;BME280;46079;48.686;15.598;2023-03-21T07:15:31;99985.09;;;20.31;38.31
60212;BME280;46079;48.686;15.598;2023-03-21T07:17:58;99986.91;;;20.30;38.42
60212;BME280;46079;48.686;15.598;2023-03-21T07:20:24;100000.84;;;20.31;38.56
60212;BME280;46079;48.686;15.598;2023-03-21T07:22:51;99993.81;;;20.31;38.35
60212;BME280;46079;48.686;15.598;2023-03-21T07:25:17;99984.97;;;20.32;38.40
60212;BME280;46079;48.686;15.598;2023-03-21T07:27:44;99990.06;;;20.34;38.40
60212;BME280;46079;48.686;15.598;2023-03-21T07:30:11;99985.66;;;20.34;38.25
60212;BME280;46079;48.686;15.598;2023-03-21T07:32:37;99991.59;;;20.36;38.28
60212;BME280;46079;48.686;15.598;2023-03-21T07:35:04;99981.91;;;20.37;37.85
60212;BME280;46079;48.686;15.598;2023-03-21T07:37:29;99989.69;;;20.38;38.22
60212;BME280;46079;48.686;15.598;2023-03-21T07:39:55;99985.13;;;20.40;38.12
60212;BME280;46079;48.686;15.598;2023-03-21T07:42:20;99999.91;;;20.41;38.25
60212;BME280;46079;48.686;15.598;2023-03-21T07:44:46;99995.34;;;20.43;38.17
60212;BME280;46079;48.686;15.598;2023-03-21T07:47:11;99997.84;;;20.45;38.22
60212;BME280;46079;48.686;15.598;2023-03-21T07:49:37;99990.66;;;20.47;38.36
60212;BME280;46079;48.686;15.598;2023-03-21T07:52:03;99989.66;;;20.48;38.33
60212;BME280;46079;48.686;15.598;2023-03-21T07:54:28;99995.09;;;20.47;38.38
60212;BME280;46079;48.686;15.598;2023-03-21T07:56:55;99996.44;;;20.51;38.27
60212;BME280;46079;48.686;15.598;2023-03-21T07:59:21;99994.66;;;20.51;38.25
60212;BME280;46079;48.686;15.598;2023-03-21T08:01:47;99991.91;;;20.53;38.31
60212;BME280;46079;48.686;15.598;2023-03-21T08:04:12;99988.31;;;20.54;38.11
60212;BME280;46079;48.686;15.598;2023-03-21T08:06:38;99999.53;;;20.56;38.09
60212;BME280;46079;48.686;15.598;2023-03-21T08:09:03;99984.59;;;20.56;38.06
60212;BME280;46079;48.686;15.598;2023-03-21T08:11:29;99998.44;;;20.58;37.89
60212;BME280;46079;48.686;15.598;2023-03-21T08:13:59;99988.63;;;20.60;38.17
60212;BME280;46079;48.686;15.598;2023-03-21T08:16:25;99986.81;;;20.61;38.27
60212;BME280;46079;48.686;15.598;2023-03-21T08:18:50;99995.41;;;20.63;38.26
60212;BME280;46079;48.686;15.598;2023-03-21T08:21:16;99986.53;;;20.64;38.15
60212;BME280;46079;48.686;15.598;2023-03-21T08:23:41;99993.31;;;20.67;37.94
60212;BME280;46079;48.686;15.598;2023-03-21T08:26:07;99992.34;;;20.68;38.07
60212;BME280;46079;48.686;15.598;2023-03-21T08:28:33;99991.25;;;20.70;38.06
60212;BME280;46079;48.686;15.598;2023-03-21T08:31:06;99994.56;;;20.72;37.67
60212;BME280;46079;48.686;15.598;2023-03-21T08:33:32;99984.88;;;20.73;38.00
60212;BME280;46079;48.686;15.598;2023-03-21T08:35:59;99984.75;;;20.74;37.72
60212;BME280;46079;48.686;15.598;2023-03-21T08:38:27;99989.84;;;20.76;37.92
60212;BME280;46079;48.686;15.598;2023-03-21T08:40:56;99986.28;;;20.77;37.99
60212;BME280;46079;48.686;15.598;2023-03-21T08:43:22;99983.50;;;20.78;37.86
60212;BME280;46079;48.686;15.598;2023-03-21T08:45:48;99984.34;;;20.79;37.83
60212;BME280;46079;48.686;15.598;2023-03-21T08:48:13;99986.00;;;20.80;37.81
60212;BME280;46079;48.686;15.598;2023-03-21T08:50:39;99979.09;;;20.79;37.93
60212;BME280;46079;48.686;15.598;2023-03-21T08:53:04;99983.50;;;20.78;37.87
60212;BME280;46079;48.686;15.598;2023-03-21T08:55:30;99980.88;;;20.78;38.15
60212;BME280;46079;48.686;15.598;2023-03-21T08:57:58;99981.84;;;20.77;38.02
60212;BME280;46079;48.686;15.598;2023-03-21T09:00:23;99976.72;;;20.76;37.90
60212;BME280;46079;48.686;15.598;2023-03-21T09:02:49;99981.16;;;20.75;37.88
60212;BME280;46079;48.686;15.598;2023-03-21T09:05:19;99980.19;;;20.76;37.89
60212;BME280;46079;48.686;15.598;2023-03-21T09:07:46;99980.19;;;20.76;38.06
60212;BME280;46079;48.686;15.598;2023-03-21T09:10:15;99975.06;;;20.75;38.07
60212;BME280;46079;48.686;15.598;2023-03-21T09:12:41;99976.88;;;20.74;38.07
60212;BME280;46079;48.686;15.598;2023-03-21T09:15:08;99978.66;;;20.74;38.08
60212;BME280;46079;48.686;15.598;2023-03-21T09:17:34;99975.19;;;20.73;38.05
60212;BME280;46079;48.686;15.598;2023-03-21T09:20:00;99976.03;;;20.74;38.00
60212;BME280;46079;48.686;15.598;2023-03-21T09:22:35;99978.78;;;20.72;38.22
60212;BME280;46079;48.686;15.598;2023-03-21T09:25:01;99981.44;;;20.72;38.09
60212;BME280;46079;48.686;15.598;2023-03-21T09:27:27;99984.06;;;20.72;38.10
60212;BME280;46079;48.686;15.598;2023-03-21T09:29:52;99970.91;;;20.72;38.08
60212;BME280;46079;48.686;15.598;2023-03-21T09:32:18;99977.16;;;20.71;38.31
60212;BME280;46079;48.686;15.598;2023-03-21T09:34:44;99972.72;;;20.72;38.16
60212;BME280;46079;48.686;15.598;2023-03-21T09:37:10;99965.81;;;20.71;38.16
60212;BME280;46079;48.686;15.598;2023-03-21T09:39:41;99964.94;;;20.70;38.11
60212;BME280;46079;48.686;15.598;2023-03-21T09:47:46;99970.22;;;20.70;38.17
60212;BME280;46079;48.686;15.598;2023-03-21T09:50:36;99961.50;;;20.70;38.19
60212;BME280;46079;48.686;15.598;2023-03-21T09:53:38;99955.41;;;20.69;38.05
60212;BME280;46079;48.686;15.598;2023-03-21T09:55:58;99952.78;;;20.69;38.03
60212;BME280;46079;48.686;15.598;2023-03-21T09:58:35;99958.06;;;20.69;38.09
60212;BME280;46079;48.686;15.598;2023-03-21T10:03:32;99952.09;;;20.67;38.25
60212;BME280;46079;48.686;15.598;2023-03-21T10:06:09;99954.72;;;20.67;38.20
60212;BME280;46079;48.686;15.598;2023-03-21T10:08:42;99943.38;;;20.67;38.27
60212;BME280;46079;48.686;15.598;2023-03-21T10:11:18;99942.56;;;20.66;38.10
60212;BME280;46079;48.686;15.598;2023-03-21T10:16:40;99931.22;;;20.65;38.17
60212;BME280;46079;48.686;15.598;2023-03-21T10:19:14;99938.25;;;20.65;38.15
60212;BME280;46079;48.686;15.598;2023-03-21T10:21:42;99923.47;;;20.64;38.06
60212;BME280;46079;48.686;15.598;2023-03-21T10:24:14;99933.16;;;20.63;38.06
60212;BME280;46079;48.686;15.598;2023-03-21T10:26:41;99923.47;;;20.64;38.34
60212;BME280;46079;48.686;15.598;2023-03-21T10:29:10;99926.25;;;20.62;38.14
60212;BME280;46079;48.686;15.598;2023-03-21T10:31:37;99921.81;;;20.63;38.43
60212;BME280;46079;48.686;15.598;2023-03-21T10:34:12;99914.88;;;20.62;38.19
60212;BME280;46079;48.686;15.598;2023-03-21T10:36:41;99915.75;;;20.62;38.28
60212;BME280;46079;48.686;15.598;2023-03-21T10:39:17;99918.50;;;20.61;38.37
60212;BME280;46079;48.686;15.598;2023-03-21T10:41:45;99907.97;;;20.61;38.33
60212;BME280;46079;48.686;15.598;2023-03-21T10:44:13;99921.00;;;20.62;38.09
60212;BME280;46079;48.686;15.598;2023-03-21T10:47:10;99928.19;;;20.60;38.09
60212;BME280;46079;48.686;15.598;2023-03-21T10:49:36;99919.31;;;20.61;38.30
60212;BME280;46079;48.686;15.598;2023-03-21T10:52:06;99926.38;;;20.61;38.27
60212;BME280;46079;48.686;15.598;2023-03-21T10:54:34;99915.88;;;20.61;38.14
60212;BME280;46079;48.686;15.598;2023-03-21T10:57:10;99902.72;;;20.61;38.26
60212;BME280;46079;48.686;15.598;2023-03-21T10:59:41;99910.72;;;20.59;38.24
60212;BME280;46079;48.686;15.598;2023-03-21T11:02:29;99916.84;;;20.60;38.22
60212;BME280;46079;48.686;15.598;2023-03-21T11:05:03;99905.34;;;20.61;38.36
60212;BME280;46079;48.686;15.598;2023-03-21T11:07:30;99904.53;;;20.60;38.23
60212;BME280;46079;48.686;15.598;2023-03-21T11:09:59;99907.16;;;20.60;38.34
60212;BME280;46079;48.686;15.598;2023-03-21T11:15:18;99908.09;;;20.59;38.24
60212;BME280;46079;48.686;15.598;2023-03-21T11:17:51;99896.63;;;20.60;38.29
60212;BME280;46079;48.686;15.598;2023-03-21T11:20:19;99902.72;;;20.61;38.31
60212;BME280;46079;48.686;15.598;2023-03-21T11:22:45;99897.47;;;20.61;38.26
60212;BME280;46079;48.686;15.598;2023-03-21T11:27:52;99892.22;;;20.61;38.24
60212;BME280;46079;48.686;15.598;2023-03-21T11:30:22;99884.44;;;20.59;38.20
60212;BME280;46079;48.686;15.598;2023-03-21T11:33:00;99893.31;;;20.58;38.16
60212;BME280;46079;48.686;15.598;2023-03-21T11:35:33;99888.88;;;20.59;38.18
60212;BME280;46079;48.686;15.598;2023-03-21T11:37:59;99888.88;;;20.59;38.20
60212;BME280;46079;48.686;15.598;2023-03-21T11:40:26;99874.91;;;20.58;38.37
60212;BME280;46079;48.686;15.598;2023-03-21T11:43:00;99881.97;;;20.58;38.28
60212;BME280;46079;48.686;15.598;2023-03-21T11:45:31;99870.50;;;20.59;38.29
60212;BME280;46079;48.686;15.598;2023-03-21T11:47:59;99871.31;;;20.59;38.34
60212;BME280;46079;48.686;15.598;2023-03-21T11:50:36;99862.59;;;20.59;38.21
60212;BME280;46079;48.686;15.598;2023-03-21T12:06:18;99835.66;;;20.57;38.19
60212;BME280;46079;48.686;15.598;2023-03-21T12:09:16;99833.84;;;20.57;38.30
60212;BME280;46079;48.686;15.598;2023-03-21T12:11:51;99834.69;;;20.58;38.31
60212;BME280;46079;48.686;15.598;2023-03-21T12:17:09;99822.53;;;20.57;38.37
60212;BME280;46079;48.686;15.598;2023-03-21T12:24:53;99819.75;;;20.58;38.29
60212;BME280;46079;48.686;15.598;2023-03-21T12:38:47;99800.66;;;20.56;38.16
60212;BME280;46079;48.686;15.598;2023-03-21T12:41:33;99800.66;;;20.56;38.12
60212;BME280;46079;48.686;15.598;2023-03-21T12:44:12;99796.25;;;20.57;38.22
60212;BME280;46079;48.686;15.598;2023-03-21T12:52:01;99796.25;;;20.57;38.09
60212;BME280;46079;48.686;15.598;2023-03-21T12:54:34;99791.81;;;20.57;38.13
60212;BME280;46079;48.686;15.598;2023-03-21T12:57:29;99783.22;;;20.55;37.96
60212;BME280;46079;48.686;15.598;2023-03-21T13:00:11;99776.16;;;20.56;38.05
60212;BME280;46079;48.686;15.598;2023-03-21T13:02:41;99777.97;;;20.55;38.05
60212;BME280;46079;48.686;15.598;2023-03-21T13:05:28;99777.16;;;20.55;38.09
60212;BME280;46079;48.686;15.598;2023-03-21T13:07:58;99774.53;;;20.55;38.03
60212;BME280;46079;48.686;15.598;2023-03-21T13:10:26;99773.69;;;20.54;37.97
60212;BME280;46079;48.686;15.598;2023-03-21T13:15:48;99768.44;;;20.54;38.09
60212;BME280;46079;48.686;15.598;2023-03-21T13:24:00;99760.56;;;20.54;38.00
60212;BME280;46079;48.686;15.598;2023-03-21T13:26:40;99754.47;;;20.54;38.07
60212;BME280;46079;48.686;15.598;2023-03-21T13:29:33;99754.47;;;20.54;38.05
60212;BME280;46079;48.686;15.598;2023-03-21T13:32:29;99752.69;;;20.54;38.03
60212;BME280;46079;48.686;15.598;2023-03-21T13:35:00;99747.53;;;20.53;37.86
60212;BME280;46079;48.686;15.598;2023-03-21T13:37:31;99742.28;;;20.53;38.00
60212;BME280;46079;48.686;15.598;2023-03-21T13:40:06;99743.13;;;20.53;37.90
60212;BME280;46079;48.686;15.598;2023-03-21T13:42:47;99738.81;;;20.52;37.91
60212;BME280;46079;48.686;15.598;2023-03-21T13:45:32;99735.25;;;20.53;37.99
60212;BME280;46079;48.686;15.598;2023-03-21T13:48:02;99739.66;;;20.53;37.92
60212;BME280;46079;48.686;15.598;2023-03-21T13:50:33;99735.38;;;20.52;37.91
60212;BME280;46079;48.686;15.598;2023-03-21T13:55:29;99737.00;;;20.53;38.03
60212;BME280;46079;48.686;15.598;2023-03-21T13:57:55;99735.38;;;20.52;37.84
60212;BME280;46079;48.686;15.598;2023-03-21T14:00:28;99737.00;;;20.53;38.13
60212;BME280;46079;48.686;15.598;2023-03-21T14:03:08;99722.38;;;20.50;37.98
60212;BME280;46079;48.686;15.598;2023-03-21T14:05:39;99722.22;;;20.52;37.87
60212;BME280;46079;48.686;15.598;2023-03-21T14:08:07;99724.88;;;20.52;37.95
60212;BME280;46079;48.686;15.598;2023-03-21T14:12:59;99724.88;;;20.52;37.95
60212;BME280;46079;48.686;15.598;2023-03-21T14:15:38;99713.50;;;20.51;38.06
60212;BME280;46079;48.686;15.598;2023-03-21T14:18:05;99712.69;;;20.51;38.06
60212;BME280;46079;48.686;15.598;2023-03-21T14:20:35;99711.84;;;20.50;38.19
60212;BME280;46079;48.686;15.598;2023-03-21T14:23:07;99714.34;;;20.52;37.97
60212;BME280;46079;48.686;15.598;2023-03-21T14:25:37;99708.41;;;20.50;38.07
60212;BME280;46079;48.686;15.598;2023-03-21T14:28:13;99708.25;;;20.51;38.18
60212;BME280;46079;48.686;15.598;2023-03-21T14:30:41;99711.72;;;20.52;37.94
60212;BME280;46079;48.686;15.598;2023-03-21T14:35:39;99701.34;;;20.50;38.06